createdAt,value
2022-08-31T00:05:19.251Z,24.00
2022-08-31T00:11:28.720Z,24.00
2022-08-31T00:17:31.381Z,23.90
2022-08-31T00:23:33.371Z,23.80
2022-08-31T00:29:35.474Z,23.80
2022-08-31T00:35:39.352Z,23.70
2022-08-31T00:41:41.608Z,23.60
2022-08-31T00:47:44.336Z,23.60
2022-08-31T00:53:48.855Z,23.50
2022-08-31T00:59:53.278Z,23.50
2022-08-31T01:05:56.411Z,23.50
2022-08-31T01:11:59.087Z,23.50
2022-08-31T01:18:03.574Z,23.50
2022-08-31T01:24:07.240Z,23.50
2022-08-31T01:30:12.568Z,23.50
2022-08-31T01:36:16.326Z,23.50
2022-08-31T01:42:21.674Z,23.60
2022-08-31T01:48:25.405Z,23.60
2022-08-31T01:54:28.113Z,23.60
2022-08-31T02:00:31.561Z,23.50
2022-08-31T02:06:34.595Z,23.40
2022-08-31T02:12:37.281Z,23.50
2022-08-31T02:18:42.985Z,23.50
2022-08-31T02:24:47.786Z,23.50
2022-08-31T02:30:49.971Z,23.60
2022-08-31T02:36:52.087Z,23.60
2022-08-31T02:42:54.620Z,23.70
2022-08-31T02:49:01.948Z,23.60
2022-08-31T02:55:05.466Z,23.60
2022-08-31T03:01:07.976Z,23.60
2022-08-31T03:07:11.286Z,23.70
2022-08-31T03:13:13.887Z,23.70
2022-08-31T03:19:18.284Z,23.70
2022-08-31T03:25:23.752Z,23.70
2022-08-31T03:31:26.613Z,23.70
2022-08-31T03:37:29.755Z,23.60
2022-08-31T03:43:36.700Z,23.30
2022-08-31T03:49:39.493Z,23.20
2022-08-31T03:55:51.676Z,23.20
2022-08-31T04:01:54.439Z,23.20
2022-08-31T04:08:25.999Z,23.40
2022-08-31T04:14:46.950Z,22.70
2022-08-31T04:21:16.561Z,21.90
2022-08-31T04:27:19.776Z,21.70
2022-08-31T04:33:22.506Z,21.20
2022-08-31T04:39:25.083Z,20.90
2022-08-31T04:45:27.510Z,20.40
2022-08-31T04:51:32.457Z,20.20
2022-08-31T04:57:36.355Z,20.50
2022-08-31T05:03:38.997Z,21.80
2022-08-31T05:09:41.436Z,22.70
2022-08-31T05:15:44.680Z,21.80
2022-08-31T05:21:51.473Z,24.10
2022-08-31T05:27:55.974Z,25.80
2022-08-31T05:33:58.560Z,27.20
2022-08-31T05:40:11.040Z,28.20
2022-08-31T05:46:14.539Z,29.30
2022-08-31T05:52:16.824Z,30.50
2022-08-31T05:58:18.948Z,32.30
2022-08-31T06:04:21.194Z,32.70
2022-08-31T06:10:23.738Z,33.40
2022-08-31T06:16:27.222Z,33.10
2022-08-31T06:22:29.820Z,34.00
2022-08-31T06:28:33.807Z,32.40
2022-08-31T06:34:38.312Z,33.90
2022-08-31T06:40:42.902Z,31.00
2022-08-31T06:47:19.669Z,29.60
2022-08-31T06:53:24.400Z,30.00
2022-08-31T06:59:52.934Z,34.30
2022-08-31T07:06:27.226Z,36.30
2022-08-31T07:12:29.565Z,37.30
2022-08-31T07:18:32.370Z,36.40
2022-08-31T07:24:35.795Z,38.40
2022-08-31T07:30:42.299Z,39.90
2022-08-31T07:37:06.234Z,38.80
2022-08-31T07:43:11.186Z,38.20
2022-08-31T07:49:16.820Z,38.60
2022-08-31T07:55:38.062Z,37.20
2022-08-31T08:01:45.446Z,36.10
2022-08-31T08:07:54.649Z,35.40
2022-08-31T08:14:17.511Z,33.50
2022-08-31T08:20:40.734Z,34.10
2022-08-31T08:26:46.047Z,32.30
2022-08-31T08:33:13.487Z,31.90
2022-08-31T08:39:17.058Z,32.10
2022-08-31T08:45:30.578Z,31.70
2022-08-31T08:51:38.641Z,31.20
2022-08-31T08:57:44.618Z,31.80
2022-08-31T09:04:25.790Z,32.50
2022-08-31T09:10:59.542Z,32.30
2022-08-31T09:17:17.183Z,34.00
2022-08-31T09:23:19.556Z,36.90
2022-08-31T09:29:31.289Z,38.80
2022-08-31T09:35:42.342Z,39.30
2022-08-31T09:41:45.398Z,39.40
2022-08-31T09:47:53.164Z,40.10
2022-08-31T09:54:22.608Z,40.20
2022-08-31T10:00:45.350Z,38.60
2022-08-31T10:07:08.330Z,35.50
2022-08-31T10:13:30.661Z,35.80
2022-08-31T10:19:52.171Z,35.50
2022-08-31T10:26:00.469Z,35.80
2022-08-31T10:32:18.178Z,36.60
2022-08-31T10:38:43.315Z,38.70
2022-08-31T10:44:56.445Z,38.50
2022-08-31T10:51:06.115Z,36.30
2022-08-31T10:57:22.331Z,33.80
2022-08-31T11:03:44.074Z,33.40
2022-08-31T11:09:55.278Z,32.90
2022-08-31T11:16:03.641Z,31.60
2022-08-31T11:22:37.215Z,31.10
2022-08-31T11:28:51.201Z,30.60
2022-08-31T11:34:56.887Z,30.30
2022-08-31T11:41:01.604Z,30.20
2022-08-31T11:47:22.571Z,30.20
2022-08-31T11:53:36.909Z,30.20
2022-08-31T11:59:42.165Z,30.10
2022-08-31T12:05:58.178Z,30.40
2022-08-31T12:12:07.952Z,30.60
2022-08-31T12:18:39.357Z,32.20
2022-08-31T12:25:04.218Z,35.50
2022-08-31T12:31:13.016Z,36.70
2022-08-31T12:37:36.154Z,36.00
2022-08-31T12:43:39.785Z,34.70
2022-08-31T12:50:08.384Z,36.30
2022-08-31T12:56:29.146Z,36.80
2022-08-31T13:02:35.894Z,35.10
2022-08-31T13:08:44.080Z,33.20
2022-08-31T13:14:46.254Z,32.20
2022-08-31T13:20:53.236Z,33.20
2022-08-31T13:27:11.807Z,33.40
2022-08-31T13:33:23.656Z,34.70
2022-08-31T13:39:35.288Z,32.80
2022-08-31T13:45:39.894Z,32.30
2022-08-31T13:51:47.178Z,32.10
2022-08-31T13:58:01.269Z,31.80
2022-08-31T14:04:03.475Z,31.40
2022-08-31T14:10:20.739Z,31.20
2022-08-31T14:16:37.899Z,31.00
2022-08-31T14:22:46.566Z,30.70
2022-08-31T14:28:54.273Z,30.50
2022-08-31T14:34:58.128Z,30.50
2022-08-31T14:41:00.270Z,30.40
2022-08-31T14:47:02.567Z,30.00
2022-08-31T14:53:09.888Z,29.60
2022-08-31T14:59:14.202Z,29.20
2022-08-31T15:05:16.389Z,29.10
2022-08-31T15:11:18.751Z,28.80
2022-08-31T15:17:24.953Z,28.60
2022-08-31T15:23:27.116Z,28.40
2022-08-31T15:29:31.331Z,28.20
2022-08-31T15:35:35.099Z,28.10
2022-08-31T15:41:38.515Z,28.00
2022-08-31T15:48:00.137Z,27.90
2022-08-31T15:54:21.087Z,27.60
2022-08-31T16:00:26.338Z,27.40
2022-08-31T16:06:32.667Z,26.90
2022-08-31T16:12:35.280Z,26.50
2022-08-31T16:18:38.343Z,26.10
2022-08-31T16:24:41.142Z,25.80
2022-08-31T16:30:44.148Z,25.50
2022-08-31T16:36:48.878Z,25.30
2022-08-31T16:42:51.330Z,25.10
2022-08-31T16:49:12.464Z,24.90
2022-08-31T16:55:15.258Z,24.80
2022-08-31T17:01:21.188Z,24.70
2022-08-31T17:07:25.139Z,24.60
2022-08-31T17:13:27.376Z,24.40
2022-08-31T17:19:31.530Z,24.30
2022-08-31T17:25:37.376Z,24.10
2022-08-31T17:31:43.391Z,23.80
2022-08-31T17:37:46.344Z,23.70
2022-08-31T17:43:48.483Z,23.60
2022-08-31T17:49:51.260Z,23.50
2022-08-31T17:55:55.555Z,23.40
2022-08-31T18:02:02.657Z,23.40
2022-08-31T18:08:04.857Z,23.40
2022-08-31T18:14:07.124Z,23.30
2022-08-31T18:20:09.927Z,23.20
2022-08-31T18:26:16.819Z,23.10
2022-08-31T18:32:19.132Z,23.10
2022-08-31T18:38:21.329Z,23.10
2022-08-31T18:44:42.439Z,23.10
2022-08-31T18:50:46.989Z,23.00
2022-08-31T18:56:50.912Z,22.90
2022-08-31T19:02:54.335Z,22.90
2022-08-31T19:08:59.170Z,22.90
2022-08-31T19:15:03.904Z,22.70
2022-08-31T19:21:18.432Z,22.80
2022-08-31T19:27:20.851Z,22.70
2022-08-31T19:33:26.375Z,22.60
2022-08-31T19:39:37.042Z,22.50
2022-08-31T19:45:42.709Z,22.30
2022-08-31T19:51:52.050Z,22.30
2022-08-31T19:57:54.919Z,22.20
2022-08-31T20:03:57.300Z,22.10
2022-08-31T20:10:00.019Z,22.10
2022-08-31T20:16:05.058Z,22.20
2022-08-31T20:22:08.358Z,22.20
2022-08-31T20:28:11.858Z,22.10
2022-08-31T20:34:18.549Z,22.20
2022-08-31T20:40:21.013Z,22.00
2022-08-31T20:46:41.775Z,21.60
2022-08-31T20:52:43.984Z,21.10
2022-08-31T20:58:46.972Z,20.60
2022-08-31T21:04:50.461Z,20.20
2022-08-31T21:10:52.744Z,19.80
2022-08-31T21:16:56.510Z,19.60
2022-08-31T21:22:58.737Z,19.60
2022-08-31T21:29:01.110Z,19.60
2022-08-31T21:35:03.401Z,19.60
2022-08-31T21:41:08.397Z,19.60
2022-08-31T21:47:15.313Z,19.50
2022-08-31T21:53:17.612Z,19.50
2022-08-31T21:59:22.522Z,19.50
2022-08-31T22:05:24.761Z,19.50
2022-08-31T22:11:29.467Z,19.40
2022-08-31T22:17:55.794Z,19.50
2022-08-31T22:23:56.703Z,19.60
2022-08-31T22:30:00.258Z,19.60
2022-08-31T22:36:02.713Z,19.60
2022-08-31T22:42:05.340Z,19.60
2022-08-31T22:48:07.495Z,19.60
2022-08-31T22:54:10.920Z,19.60
2022-08-31T23:00:14.888Z,19.60
2022-08-31T23:06:20.505Z,19.60
2022-08-31T23:12:26.621Z,19.70
2022-08-31T23:18:29.056Z,19.70
2022-08-31T23:24:33.877Z,19.70
2022-08-31T23:30:37.249Z,19.70
2022-08-31T23:36:42.202Z,19.70
2022-08-31T23:42:44.765Z,19.70
2022-08-31T23:48:47.500Z,19.70
2022-08-31T23:54:52.786Z,19.60
